sensor_id;sensor_type;location;lat;lon;timestamp;temperature;humidity
58409;DHT22;44202;52.730;6.470;2022-09-03T00:02:11;16.60;86.20
58409;DHT22;44202;52.730;6.470;2022-09-03T00:04:46;16.60;85.10
58409;DHT22;44202;52.730;6.470;2022-09-03T00:07:27;16.60;83.50
58409;DHT22;44202;52.730;6.470;2022-09-03T00:10:04;16.60;83.70
58409;DHT22;44202;52.730;6.470;2022-09-03T00:12:37;16.60;83.20
58409;DHT22;44202;52.730;6.470;2022-09-03T00:15:19;16.50;83.40
58409;DHT22;44202;52.730;6.470;2022-09-03T00:17:47;16.50;84.60
58409;DHT22;44202;52.730;6.470;2022-09-03T00:20:26;16.50;83.50
58409;DHT22;44202;52.730;6.470;2022-09-03T00:22:58;16.40;82.70
58409;DHT22;44202;52.730;6.470;2022-09-03T00:25:58;16.40;83.30
58409;DHT22;44202;52.730;6.470;2022-09-03T00:28:34;16.40;83.80
58409;DHT22;44202;52.730;6.470;2022-09-03T00:31:27;16.30;84.10
58409;DHT22;44202;52.730;6.470;2022-09-03T00:34:04;16.30;83.40
58409;DHT22;44202;52.730;6.470;2022-09-03T00:36:38;16.30;84.00
58409;DHT22;44202;52.730;6.470;2022-09-03T00:39:09;16.30;83.70
58409;DHT22;44202;52.730;6.470;2022-09-03T00:41:41;16.20;85.00
58409;DHT22;44202;52.730;6.470;2022-09-03T00:44:20;16.20;85.30
58409;DHT22;44202;52.730;6.470;2022-09-03T00:47:01;16.20;86.10
58409;DHT22;44202;52.730;6.470;2022-09-03T00:50:06;16.20;86.50
58409;DHT22;44202;52.730;6.470;2022-09-03T00:55:32;16.10;86.60
58409;DHT22;44202;52.730;6.470;2022-09-03T01:00:45;16.10;86.90
58409;DHT22;44202;52.730;6.470;2022-09-03T01:16:55;15.80;91.60
58409;DHT22;44202;52.730;6.470;2022-09-03T01:22:18;15.80;92.70
58409;DHT22;44202;52.730;6.470;2022-09-03T01:25:21;15.80;93.10
58409;DHT22;44202;52.730;6.470;2022-09-03T01:30:42;15.70;93.60
58409;DHT22;44202;52.730;6.470;2022-09-03T01:35:48;15.60;93.70
58409;DHT22;44202;52.730;6.470;2022-09-03T01:47:15;15.50;95.00
58409;DHT22;44202;52.730;6.470;2022-09-03T01:49:55;15.50;94.90
58409;DHT22;44202;52.730;6.470;2022-09-03T01:52:39;15.50;94.80
58409;DHT22;44202;52.730;6.470;2022-09-03T01:55:31;15.50;95.00
58409;DHT22;44202;52.730;6.470;2022-09-03T01:58:05;15.50;94.20
58409;DHT22;44202;52.730;6.470;2022-09-03T02:00:36;15.40;94.60
58409;DHT22;44202;52.730;6.470;2022-09-03T02:03:07;15.40;94.90
58409;DHT22;44202;52.730;6.470;2022-09-03T02:05:35;15.40;94.80
58409;DHT22;44202;52.730;6.470;2022-09-03T02:08:02;15.40;94.60
58409;DHT22;44202;52.730;6.470;2022-09-03T02:11:02;15.40;94.40
58409;DHT22;44202;52.730;6.470;2022-09-03T02:13:37;15.50;94.80
58409;DHT22;44202;52.730;6.470;2022-09-03T02:16:23;15.50;94.10
58409;DHT22;44202;52.730;6.470;2022-09-03T02:18:53;15.60;93.90
58409;DHT22;44202;52.730;6.470;2022-09-03T02:21:21;15.60;94.20
58409;DHT22;44202;52.730;6.470;2022-09-03T02:23:47;15.60;94.30
58409;DHT22;44202;52.730;6.470;2022-09-03T02:26:17;15.60;93.10
58409;DHT22;44202;52.730;6.470;2022-09-03T02:28:43;15.60;92.60
58409;DHT22;44202;52.730;6.470;2022-09-03T02:31:09;15.60;92.60
58409;DHT22;44202;52.730;6.470;2022-09-03T02:33:40;15.70;93.30
58409;DHT22;44202;52.730;6.470;2022-09-03T02:36:09;15.70;92.90
58409;DHT22;44202;52.730;6.470;2022-09-03T02:38:34;15.70;92.10
58409;DHT22;44202;52.730;6.470;2022-09-03T02:41:01;15.70;93.60
58409;DHT22;44202;52.730;6.470;2022-09-03T02:43:38;15.80;92.50
58409;DHT22;44202;52.730;6.470;2022-09-03T02:46:09;15.80;91.70
58409;DHT22;44202;52.730;6.470;2022-09-03T02:48:37;15.80;91.60
58409;DHT22;44202;52.730;6.470;2022-09-03T02:51:04;15.70;92.40
58409;DHT22;44202;52.730;6.470;2022-09-03T02:53:29;15.80;92.00
58409;DHT22;44202;52.730;6.470;2022-09-03T02:56:00;15.80;91.70
58409;DHT22;44202;52.730;6.470;2022-09-03T02:58:27;15.80;91.30
58409;DHT22;44202;52.730;6.470;2022-09-03T03:00:53;15.80;91.60
58409;DHT22;44202;52.730;6.470;2022-09-03T03:03:20;15.80;91.30
58409;DHT22;44202;52.730;6.470;2022-09-03T03:05:52;15.80;91.60
58409;DHT22;44202;52.730;6.470;2022-09-03T03:08:21;15.80;92.40
58409;DHT22;44202;52.730;6.470;2022-09-03T03:10:48;15.80;92.10
58409;DHT22;44202;52.730;6.470;2022-09-03T03:13:15;15.80;92.00
58409;DHT22;44202;52.730;6.470;2022-09-03T03:15:41;15.70;91.90
58409;DHT22;44202;52.730;6.470;2022-09-03T03:18:08;15.70;92.10
58409;DHT22;44202;52.730;6.470;2022-09-03T03:20:37;15.70;92.40
58409;DHT22;44202;52.730;6.470;2022-09-03T03:23:03;15.60;93.30
58409;DHT22;44202;52.730;6.470;2022-09-03T03:25:34;15.60;94.20
58409;DHT22;44202;52.730;6.470;2022-09-03T03:28:00;15.60;94.10
58409;DHT22;44202;52.730;6.470;2022-09-03T03:30:26;15.50;94.50
58409;DHT22;44202;52.730;6.470;2022-09-03T03:32:53;15.50;94.40
58409;DHT22;44202;52.730;6.470;2022-09-03T03:35:18;15.50;94.40
58409;DHT22;44202;52.730;6.470;2022-09-03T03:37:44;15.50;94.80
58409;DHT22;44202;52.730;6.470;2022-09-03T03:40:10;15.50;94.20
58409;DHT22;44202;52.730;6.470;2022-09-03T03:42:37;15.50;94.50
58409;DHT22;44202;52.730;6.470;2022-09-03T03:45:04;15.50;94.80
58409;DHT22;44202;52.730;6.470;2022-09-03T03:47:29;15.50;95.20
58409;DHT22;44202;52.730;6.470;2022-09-03T03:49:59;15.50;95.40
58409;DHT22;44202;52.730;6.470;2022-09-03T03:52:25;15.40;95.80
58409;DHT22;44202;52.730;6.470;2022-09-03T03:54:51;15.40;95.70
58409;DHT22;44202;52.730;6.470;2022-09-03T03:57:18;15.40;96.30
58409;DHT22;44202;52.730;6.470;2022-09-03T03:59:45;15.30;96.70
58409;DHT22;44202;52.730;6.470;2022-09-03T04:02:11;15.30;96.80
58409;DHT22;44202;52.730;6.470;2022-09-03T04:04:37;15.20;97.50
58409;DHT22;44202;52.730;6.470;2022-09-03T04:07:03;15.20;98.30
58409;DHT22;44202;52.730;6.470;2022-09-03T04:09:28;15.10;98.30
58409;DHT22;44202;52.730;6.470;2022-09-03T04:11:54;15.10;98.40
58409;DHT22;44202;52.730;6.470;2022-09-03T04:14:22;15.10;99.20
58409;DHT22;44202;52.730;6.470;2022-09-03T04:16:48;15.00;99.90
58409;DHT22;44202;52.730;6.470;2022-09-03T04:19:16;14.90;99.90
58409;DHT22;44202;52.730;6.470;2022-09-03T04:21:42;14.90;99.90
58409;DHT22;44202;52.730;6.470;2022-09-03T04:24:08;14.90;99.90
58409;DHT22;44202;52.730;6.470;2022-09-03T04:26:34;14.80;99.90
58409;DHT22;44202;52.730;6.470;2022-09-03T04:29:02;14.80;99.90
58409;DHT22;44202;52.730;6.470;2022-09-03T04:31:29;14.70;99.90
58409;DHT22;44202;52.730;6.470;2022-09-03T04:33:54;14.60;99.90
58409;DHT22;44202;52.730;6.470;2022-09-03T04:36:23;14.60;99.90
58409;DHT22;44202;52.730;6.470;2022-09-03T04:38:51;14.50;99.90
58409;DHT22;44202;52.730;6.470;2022-09-03T04:41:29;14.50;99.90
58409;DHT22;44202;52.730;6.470;2022-09-03T04:43:57;14.40;99.90
58409;DHT22;44202;52.730;6.470;2022-09-03T04:46:25;14.40;99.90
58409;DHT22;44202;52.730;6.470;2022-09-03T04:48:53;14.40;99.90
58409;DHT22;44202;52.730;6.470;2022-09-03T04:51:26;14.40;99.90
58409;DHT22;44202;52.730;6.470;2022-09-03T04:53:54;14.30;99.90
58409;DHT22;44202;52.730;6.470;2022-09-03T04:56:23;14.30;99.90
58409;DHT22;44202;52.730;6.470;2022-09-03T04:59:03;14.20;99.90
58409;DHT22;44202;52.730;6.470;2022-09-03T05:01:31;14.20;99.90
58409;DHT22;44202;52.730;6.470;2022-09-03T05:03:58;14.20;99.90
58409;DHT22;44202;52.730;6.470;2022-09-03T05:06:25;14.20;99.90
58409;DHT22;44202;52.730;6.470;2022-09-03T05:08:52;14.20;99.90
58409;DHT22;44202;52.730;6.470;2022-09-03T05:11:19;14.10;99.90
58409;DHT22;44202;52.730;6.470;2022-09-03T05:13:49;14.10;99.90
58409;DHT22;44202;52.730;6.470;2022-09-03T05:16:16;14.10;99.90
58409;DHT22;44202;52.730;6.470;2022-09-03T05:18:42;14.10;99.90
58409;DHT22;44202;52.730;6.470;2022-09-03T05:21:14;14.00;99.90
58409;DHT22;44202;52.730;6.470;2022-09-03T05:23:42;14.00;99.90
58409;DHT22;44202;52.730;6.470;2022-09-03T05:26:14;14.00;99.90
58409;DHT22;44202;52.730;6.470;2022-09-03T05:28:41;14.00;99.90
58409;DHT22;44202;52.730;6.470;2022-09-03T05:33:36;14.10;99.90
58409;DHT22;44202;52.730;6.470;2022-09-03T05:36:12;14.10;99.90
58409;DHT22;44202;52.730;6.470;2022-09-03T05:38:38;14.10;99.90
58409;DHT22;44202;52.730;6.470;2022-09-03T05:41:06;14.10;99.90
58409;DHT22;44202;52.730;6.470;2022-09-03T05:43:33;14.20;99.90
58409;DHT22;44202;52.730;6.470;2022-09-03T05:46:06;14.30;99.90
58409;DHT22;44202;52.730;6.470;2022-09-03T05:48:36;14.30;99.90
58409;DHT22;44202;52.730;6.470;2022-09-03T05:51:08;14.40;99.90
58409;DHT22;44202;52.730;6.470;2022-09-03T05:53:36;14.40;99.90
58409;DHT22;44202;52.730;6.470;2022-09-03T05:56:08;14.50;99.90
58409;DHT22;44202;52.730;6.470;2022-09-03T05:58:46;14.60;99.90
58409;DHT22;44202;52.730;6.470;2022-09-03T06:01:14;14.60;99.90
58409;DHT22;44202;52.730;6.470;2022-09-03T06:03:41;14.70;99.90
58409;DHT22;44202;52.730;6.470;2022-09-03T06:06:08;14.70;99.90
58409;DHT22;44202;52.730;6.470;2022-09-03T06:08:34;14.80;99.90
58409;DHT22;44202;52.730;6.470;2022-09-03T06:11:03;14.90;99.90
58409;DHT22;44202;52.730;6.470;2022-09-03T06:13:30;15.00;99.90
58409;DHT22;44202;52.730;6.470;2022-09-03T06:16:02;15.10;99.90
58409;DHT22;44202;52.730;6.470;2022-09-03T06:18:28;15.10;99.90
58409;DHT22;44202;52.730;6.470;2022-09-03T06:21:02;15.10;99.90
58409;DHT22;44202;52.730;6.470;2022-09-03T06:23:29;15.10;99.90
58409;DHT22;44202;52.730;6.470;2022-09-03T06:26:03;15.10;99.90
58409;DHT22;44202;52.730;6.470;2022-09-03T06:28:30;15.10;99.90
58409;DHT22;44202;52.730;6.470;2022-09-03T06:30:59;15.20;99.90
58409;DHT22;44202;52.730;6.470;2022-09-03T06:33:27;15.20;99.90
58409;DHT22;44202;52.730;6.470;2022-09-03T06:35:56;15.20;99.90
58409;DHT22;44202;52.730;6.470;2022-09-03T06:38:23;15.20;99.90
58409;DHT22;44202;52.730;6.470;2022-09-03T06:40:59;15.20;99.90
58409;DHT22;44202;52.730;6.470;2022-09-03T06:43:39;15.20;99.90
58409;DHT22;44202;52.730;6.470;2022-09-03T06:46:10;15.20;99.90
58409;DHT22;44202;52.730;6.470;2022-09-03T06:48:38;15.30;99.90
58409;DHT22;44202;52.730;6.470;2022-09-03T06:51:06;15.40;99.90
58409;DHT22;44202;52.730;6.470;2022-09-03T06:53:34;15.50;99.90
58409;DHT22;44202;52.730;6.470;2022-09-03T06:56:03;15.60;99.90
58409;DHT22;44202;52.730;6.470;2022-09-03T06:58:31;15.70;99.90
58409;DHT22;44202;52.730;6.470;2022-09-03T07:01:04;15.80;99.90
58409;DHT22;44202;52.730;6.470;2022-09-03T07:03:34;15.90;99.90
58409;DHT22;44202;52.730;6.470;2022-09-03T07:06:08;15.90;99.90
58409;DHT22;44202;52.730;6.470;2022-09-03T07:08:34;16.00;99.90
58409;DHT22;44202;52.730;6.470;2022-09-03T07:11:02;16.10;99.90
58409;DHT22;44202;52.730;6.470;2022-09-03T07:13:37;16.20;99.90
58409;DHT22;44202;52.730;6.470;2022-09-03T07:16:19;16.30;99.90
58409;DHT22;44202;52.730;6.470;2022-09-03T07:18:45;16.40;99.90
58409;DHT22;44202;52.730;6.470;2022-09-03T07:21:14;16.50;99.90
58409;DHT22;44202;52.730;6.470;2022-09-03T07:23:40;16.60;99.90
58409;DHT22;44202;52.730;6.470;2022-09-03T07:26:15;16.60;99.90
58409;DHT22;44202;52.730;6.470;2022-09-03T07:28:42;16.70;99.90
58409;DHT22;44202;52.730;6.470;2022-09-03T07:31:18;16.70;99.90
58409;DHT22;44202;52.730;6.470;2022-09-03T07:33:46;16.80;99.70
58409;DHT22;44202;52.730;6.470;2022-09-03T07:36:16;17.00;98.70
58409;DHT22;44202;52.730;6.470;2022-09-03T07:38:43;17.00;98.90
58409;DHT22;44202;52.730;6.470;2022-09-03T07:41:10;17.10;98.30
58409;DHT22;44202;52.730;6.470;2022-09-03T07:43:41;17.20;98.30
58409;DHT22;44202;52.730;6.470;2022-09-03T07:46:09;17.30;96.90
58409;DHT22;44202;52.730;6.470;2022-09-03T07:48:40;17.40;95.50
58409;DHT22;44202;52.730;6.470;2022-09-03T07:51:07;17.60;94.70
58409;DHT22;44202;52.730;6.470;2022-09-03T07:53:34;17.60;93.90
58409;DHT22;44202;52.730;6.470;2022-09-03T07:56:02;17.70;94.60
58409;DHT22;44202;52.730;6.470;2022-09-03T07:58:32;17.90;95.40
58409;DHT22;44202;52.730;6.470;2022-09-03T08:01:03;18.00;92.30
58409;DHT22;44202;52.730;6.470;2022-09-03T08:03:29;18.10;91.60
58409;DHT22;44202;52.730;6.470;2022-09-03T08:06:06;18.20;92.70
58409;DHT22;44202;52.730;6.470;2022-09-03T08:08:36;18.20;90.10
58409;DHT22;44202;52.730;6.470;2022-09-03T08:11:22;18.40;85.40
58409;DHT22;44202;52.730;6.470;2022-09-03T08:16:26;18.70;84.10
58409;DHT22;44202;52.730;6.470;2022-09-03T08:18:53;18.80;82.70
58409;DHT22;44202;52.730;6.470;2022-09-03T08:21:22;18.90;79.60
58409;DHT22;44202;52.730;6.470;2022-09-03T08:23:50;19.10;78.90
58409;DHT22;44202;52.730;6.470;2022-09-03T08:26:19;19.20;76.80
58409;DHT22;44202;52.730;6.470;2022-09-03T08:28:45;19.30;76.70
58409;DHT22;44202;52.730;6.470;2022-09-03T08:31:14;19.40;75.80
58409;DHT22;44202;52.730;6.470;2022-09-03T08:33:42;19.50;74.20
58409;DHT22;44202;52.730;6.470;2022-09-03T08:38:40;19.90;73.10
58409;DHT22;44202;52.730;6.470;2022-09-03T08:43:56;20.20;69.60
58409;DHT22;44202;52.730;6.470;2022-09-03T08:51:47;21.00;65.60
58409;DHT22;44202;52.730;6.470;2022-09-03T08:54:15;21.60;65.50
58409;DHT22;44202;52.730;6.470;2022-09-03T08:56:42;22.50;60.90
58409;DHT22;44202;52.730;6.470;2022-09-03T08:59:09;23.40;57.80
58409;DHT22;44202;52.730;6.470;2022-09-03T09:04:29;25.00;54.10
58409;DHT22;44202;52.730;6.470;2022-09-03T09:09:59;25.90;51.90
58409;DHT22;44202;52.730;6.470;2022-09-03T09:12:42;26.60;51.50
58409;DHT22;44202;52.730;6.470;2022-09-03T09:18:00;27.00;49.60
58409;DHT22;44202;52.730;6.470;2022-09-03T09:20:51;27.20;49.40
58409;DHT22;44202;52.730;6.470;2022-09-03T09:25:50;27.50;48.60
58409;DHT22;44202;52.730;6.470;2022-09-03T09:28:23;27.50;48.40
58409;DHT22;44202;52.730;6.470;2022-09-03T09:30:53;27.50;48.00
58409;DHT22;44202;52.730;6.470;2022-09-03T09:33:20;27.60;48.10
58409;DHT22;44202;52.730;6.470;2022-09-03T09:35:47;27.80;48.10
58409;DHT22;44202;52.730;6.470;2022-09-03T09:38:13;27.90;48.00
58409;DHT22;44202;52.730;6.470;2022-09-03T09:40:43;28.00;47.50
58409;DHT22;44202;52.730;6.470;2022-09-03T09:43:17;28.20;47.70
58409;DHT22;44202;52.730;6.470;2022-09-03T09:45:51;28.60;46.80
58409;DHT22;44202;52.730;6.470;2022-09-03T09:48:31;28.90;46.30
58409;DHT22;44202;52.730;6.470;2022-09-03T09:51:18;29.40;46.50
58409;DHT22;44202;52.730;6.470;2022-09-03T09:53:44;29.90;44.00
58409;DHT22;44202;52.730;6.470;2022-09-03T09:56:24;29.70;44.50
58409;DHT22;44202;52.730;6.470;2022-09-03T09:59:01;29.40;45.00
58409;DHT22;44202;52.730;6.470;2022-09-03T10:01:27;29.00;45.90
58409;DHT22;44202;52.730;6.470;2022-09-03T10:03:57;28.90;46.40
58409;DHT22;44202;52.730;6.470;2022-09-03T10:06:29;28.90;46.50
58409;DHT22;44202;52.730;6.470;2022-09-03T10:09:16;28.90;46.40
58409;DHT22;44202;52.730;6.470;2022-09-03T10:12:01;29.00;45.80
58409;DHT22;44202;52.730;6.470;2022-09-03T10:14:38;29.10;45.40
58409;DHT22;44202;52.730;6.470;2022-09-03T10:17:20;29.10;45.40
58409;DHT22;44202;52.730;6.470;2022-09-03T10:20:23;29.00;44.30
58409;DHT22;44202;52.730;6.470;2022-09-03T10:26:09;29.50;44.40
58409;DHT22;44202;52.730;6.470;2022-09-03T10:28:36;30.00;43.10
58409;DHT22;44202;52.730;6.470;2022-09-03T10:34:42;29.70;43.60
58409;DHT22;44202;52.730;6.470;2022-09-03T10:48:25;30.50;42.40
58409;DHT22;44202;52.730;6.470;2022-09-03T10:51:09;30.70;42.00
58409;DHT22;44202;52.730;6.470;2022-09-03T11:04:19;33.00;38.30
58409;DHT22;44202;52.730;6.470;2022-09-03T11:06:54;33.10;38.00
58409;DHT22;44202;52.730;6.470;2022-09-03T11:12:03;33.60;37.30
58409;DHT22;44202;52.730;6.470;2022-09-03T11:14:45;33.80;36.90
58409;DHT22;44202;52.730;6.470;2022-09-03T11:17:22;33.80;37.20
58409;DHT22;44202;52.730;6.470;2022-09-03T11:19:54;33.90;37.80
58409;DHT22;44202;52.730;6.470;2022-09-03T11:22:21;34.10;37.10
58409;DHT22;44202;52.730;6.470;2022-09-03T11:24:53;34.20;37.00
58409;DHT22;44202;52.730;6.470;2022-09-03T11:30:01;34.10;36.90
58409;DHT22;44202;52.730;6.470;2022-09-03T11:33:00;34.10;36.30
58409;DHT22;44202;52.730;6.470;2022-09-03T11:38:30;34.40;36.20
58409;DHT22;44202;52.730;6.470;2022-09-03T11:43:31;34.60;35.70
58409;DHT22;44202;52.730;6.470;2022-09-03T11:46:13;34.50;36.00
58409;DHT22;44202;52.730;6.470;2022-09-03T11:48:51;34.60;36.00
58409;DHT22;44202;52.730;6.470;2022-09-03T11:53:57;34.50;36.50
58409;DHT22;44202;52.730;6.470;2022-09-03T11:56:24;34.30;35.30
58409;DHT22;44202;52.730;6.470;2022-09-03T11:59:33;33.90;35.20
58409;DHT22;44202;52.730;6.470;2022-09-03T12:01:57;33.50;34.30
58409;DHT22;44202;52.730;6.470;2022-09-03T12:04:50;33.10;35.90
58409;DHT22;44202;52.730;6.470;2022-09-03T12:07:41;32.90;36.50
58409;DHT22;44202;52.730;6.470;2022-09-03T12:18:50;32.60;37.00
58409;DHT22;44202;52.730;6.470;2022-09-03T12:21:19;32.60;37.80
58409;DHT22;44202;52.730;6.470;2022-09-03T12:23:52;32.50;37.30
58409;DHT22;44202;52.730;6.470;2022-09-03T12:26:23;32.40;36.80
58409;DHT22;44202;52.730;6.470;2022-09-03T12:28:55;32.20;37.00
58409;DHT22;44202;52.730;6.470;2022-09-03T12:31:42;32.20;37.40
58409;DHT22;44202;52.730;6.470;2022-09-03T12:34:28;32.20;37.00
58409;DHT22;44202;52.730;6.470;2022-09-03T12:36:56;31.90;37.20
58409;DHT22;44202;52.730;6.470;2022-09-03T12:39:23;31.30;37.80
58409;DHT22;44202;52.730;6.470;2022-09-03T12:42:06;30.80;38.40
58409;DHT22;44202;52.730;6.470;2022-09-03T12:47:02;30.00;39.00
58409;DHT22;44202;52.730;6.470;2022-09-03T12:49:37;29.70;40.20
58409;DHT22;44202;52.730;6.470;2022-09-03T12:54:53;29.20;41.30
58409;DHT22;44202;52.730;6.470;2022-09-03T12:57:24;29.00;41.20
58409;DHT22;44202;52.730;6.470;2022-09-03T12:59:54;28.80;41.20
58409;DHT22;44202;52.730;6.470;2022-09-03T13:05:34;28.20;41.20
58409;DHT22;44202;52.730;6.470;2022-09-03T13:08:02;28.00;42.10
58409;DHT22;44202;52.730;6.470;2022-09-03T13:10:36;27.90;42.40
58409;DHT22;44202;52.730;6.470;2022-09-03T13:13:23;27.80;42.30
58409;DHT22;44202;52.730;6.470;2022-09-03T13:21:53;27.50;42.60
58409;DHT22;44202;52.730;6.470;2022-09-03T13:24:30;27.50;42.90
58409;DHT22;44202;52.730;6.470;2022-09-03T13:33:04;27.40;43.00
58409;DHT22;44202;52.730;6.470;2022-09-03T13:35:51;27.50;43.90
58409;DHT22;44202;52.730;6.470;2022-09-03T13:38:38;27.50;43.10
58409;DHT22;44202;52.730;6.470;2022-09-03T13:41:13;27.40;43.90
58409;DHT22;44202;52.730;6.470;2022-09-03T13:44:10;27.30;43.80
58409;DHT22;44202;52.730;6.470;2022-09-03T13:52:30;27.10;44.20
58409;DHT22;44202;52.730;6.470;2022-09-03T13:55:01;27.10;43.50
58409;DHT22;44202;52.730;6.470;2022-09-03T14:00:29;27.10;45.90
58409;DHT22;44202;52.730;6.470;2022-09-03T14:09:14;27.20;44.40
58409;DHT22;44202;52.730;6.470;2022-09-03T14:15:05;27.20;43.80
58409;DHT22;44202;52.730;6.470;2022-09-03T14:17:47;27.10;44.10
58409;DHT22;44202;52.730;6.470;2022-09-03T14:20:22;27.10;44.50
58409;DHT22;44202;52.730;6.470;2022-09-03T14:25:25;27.10;44.40
58409;DHT22;44202;52.730;6.470;2022-09-03T14:27:52;27.10;44.20
58409;DHT22;44202;52.730;6.470;2022-09-03T14:30:31;27.10;44.70
58409;DHT22;44202;52.730;6.470;2022-09-03T14:36:04;27.30;45.20
58409;DHT22;44202;52.730;6.470;2022-09-03T14:39:07;27.30;44.40
58409;DHT22;44202;52.730;6.470;2022-09-03T14:44:42;27.50;44.80
58409;DHT22;44202;52.730;6.470;2022-09-03T14:47:29;27.60;44.70
58409;DHT22;44202;52.730;6.470;2022-09-03T14:56:36;27.70;43.20
58409;DHT22;44202;52.730;6.470;2022-09-03T15:07:29;27.70;44.80
58409;DHT22;44202;52.730;6.470;2022-09-03T15:12:39;27.90;44.90
58409;DHT22;44202;52.730;6.470;2022-09-03T15:15:12;28.10;44.40
58409;DHT22;44202;52.730;6.470;2022-09-03T15:18:02;28.10;44.30
58409;DHT22;44202;52.730;6.470;2022-09-03T15:20:48;28.10;44.30
58409;DHT22;44202;52.730;6.470;2022-09-03T15:31:56;28.80;43.50
58409;DHT22;44202;52.730;6.470;2022-09-03T15:37:35;29.60;41.80
58409;DHT22;44202;52.730;6.470;2022-09-03T15:42:51;30.00;41.40
58409;DHT22;44202;52.730;6.470;2022-09-03T15:45:40;30.00;41.60
58409;DHT22;44202;52.730;6.470;2022-09-03T15:51:12;30.20;41.10
58409;DHT22;44202;52.730;6.470;2022-09-03T15:54:00;30.30;40.90
58409;DHT22;44202;52.730;6.470;2022-09-03T15:56:40;30.30;40.80
58409;DHT22;44202;52.730;6.470;2022-09-03T15:59:18;30.20;41.10
58409;DHT22;44202;52.730;6.470;2022-09-03T16:02:09;30.20;41.40
58409;DHT22;44202;52.730;6.470;2022-09-03T16:12:48;29.60;41.40
58409;DHT22;44202;52.730;6.470;2022-09-03T16:15:24;29.50;41.20
58409;DHT22;44202;52.730;6.470;2022-09-03T16:18:06;29.20;41.60
58409;DHT22;44202;52.730;6.470;2022-09-03T16:23:11;28.60;42.70
58409;DHT22;44202;52.730;6.470;2022-09-03T16:25:56;28.40;42.90
58409;DHT22;44202;52.730;6.470;2022-09-03T16:28:28;28.00;43.20
58409;DHT22;44202;52.730;6.470;2022-09-03T16:34:03;27.80;43.40
58409;DHT22;44202;52.730;6.470;2022-09-03T16:42:42;28.10;43.60
58409;DHT22;44202;52.730;6.470;2022-09-03T16:56:37;29.70;43.40
58409;DHT22;44202;52.730;6.470;2022-09-03T16:59:16;30.20;41.50
58409;DHT22;44202;52.730;6.470;2022-09-03T17:02:21;30.60;40.50
58409;DHT22;44202;52.730;6.470;2022-09-03T17:10:44;30.80;39.80
58409;DHT22;44202;52.730;6.470;2022-09-03T17:23:59;29.80;40.80
58409;DHT22;44202;52.730;6.470;2022-09-03T17:26:37;29.10;41.70
58409;DHT22;44202;52.730;6.470;2022-09-03T17:34:55;26.90;44.40
58409;DHT22;44202;52.730;6.470;2022-09-03T17:40:30;25.90;45.40
58409;DHT22;44202;52.730;6.470;2022-09-03T17:51:16;24.60;48.80
58409;DHT22;44202;52.730;6.470;2022-09-03T17:57:14;24.10;50.00
58409;DHT22;44202;52.730;6.470;2022-09-03T17:59:55;23.90;50.80
58409;DHT22;44202;52.730;6.470;2022-09-03T18:02:42;23.70;51.70
58409;DHT22;44202;52.730;6.470;2022-09-03T18:05:17;23.50;51.90
58409;DHT22;44202;52.730;6.470;2022-09-03T18:07:53;23.30;52.10
58409;DHT22;44202;52.730;6.470;2022-09-03T18:16:08;22.90;53.80
58409;DHT22;44202;52.730;6.470;2022-09-03T18:18:45;22.80;54.40
58409;DHT22;44202;52.730;6.470;2022-09-03T18:21:20;22.60;54.70
58409;DHT22;44202;52.730;6.470;2022-09-03T18:24:28;22.50;55.60
58409;DHT22;44202;52.730;6.470;2022-09-03T18:27:28;22.40;55.70
58409;DHT22;44202;52.730;6.470;2022-09-03T18:30:17;22.30;56.20
58409;DHT22;44202;52.730;6.470;2022-09-03T18:33:01;22.10;56.20
58409;DHT22;44202;52.730;6.470;2022-09-03T18:35:46;22.00;56.30
58409;DHT22;44202;52.730;6.470;2022-09-03T18:38:35;21.90;57.80
58409;DHT22;44202;52.730;6.470;2022-09-03T18:44:48;21.70;57.80
58409;DHT22;44202;52.730;6.470;2022-09-03T18:47:43;21.70;58.90
58409;DHT22;44202;52.730;6.470;2022-09-03T18:50:42;21.50;58.40
58409;DHT22;44202;52.730;6.470;2022-09-03T19:11:50;21.10;61.60
58409;DHT22;44202;52.730;6.470;2022-09-03T19:21:19;20.90;63.40
58409;DHT22;44202;52.730;6.470;2022-09-03T19:24:05;20.80;64.00
58409;DHT22;44202;52.730;6.470;2022-09-03T19:27:21;20.70;63.90
58409;DHT22;44202;52.730;6.470;2022-09-03T19:30:17;20.60;64.30
58409;DHT22;44202;52.730;6.470;2022-09-03T19:42:37;20.40;66.00
58409;DHT22;44202;52.730;6.470;2022-09-03T19:54:42;20.10;67.50
58409;DHT22;44202;52.730;6.470;2022-09-03T19:57:28;20.00;68.50
58409;DHT22;44202;52.730;6.470;2022-09-03T20:00:12;20.00;68.90
58409;DHT22;44202;52.730;6.470;2022-09-03T20:02:57;20.00;68.20
58409;DHT22;44202;52.730;6.470;2022-09-03T20:05:42;20.00;68.30
58409;DHT22;44202;52.730;6.470;2022-09-03T20:08:28;20.00;68.20
58409;DHT22;44202;52.730;6.470;2022-09-03T20:11:19;20.00;68.30
58409;DHT22;44202;52.730;6.470;2022-09-03T20:13:46;19.90;68.60
58409;DHT22;44202;52.730;6.470;2022-09-03T20:16:37;19.90;69.00
58409;DHT22;44202;52.730;6.470;2022-09-03T20:30:15;19.90;69.00
58409;DHT22;44202;52.730;6.470;2022-09-03T20:46:32;19.60;70.70
58409;DHT22;44202;52.730;6.470;2022-09-03T20:51:56;19.50;71.30
58409;DHT22;44202;52.730;6.470;2022-09-03T20:54:30;19.50;69.70
58409;DHT22;44202;52.730;6.470;2022-09-03T21:00:14;19.50;68.10
58409;DHT22;44202;52.730;6.470;2022-09-03T21:11:06;19.60;65.60
58409;DHT22;44202;52.730;6.470;2022-09-03T21:24:52;19.50;65.90
58409;DHT22;44202;52.730;6.470;2022-09-03T21:27:53;19.40;65.90
58409;DHT22;44202;52.730;6.470;2022-09-03T21:30:17;19.40;66.00
58409;DHT22;44202;52.730;6.470;2022-09-03T21:33:03;19.30;65.80
58409;DHT22;44202;52.730;6.470;2022-09-03T21:35:32;19.30;65.90
58409;DHT22;44202;52.730;6.470;2022-09-03T21:38:06;19.30;65.60
58409;DHT22;44202;52.730;6.470;2022-09-03T21:40:34;19.30;65.90
58409;DHT22;44202;52.730;6.470;2022-09-03T21:43:20;19.30;65.60
58409;DHT22;44202;52.730;6.470;2022-09-03T21:48:34;19.20;65.60
58409;DHT22;44202;52.730;6.470;2022-09-03T21:51:30;19.20;65.70
58409;DHT22;44202;52.730;6.470;2022-09-03T21:54:22;19.20;65.70
58409;DHT22;44202;52.730;6.470;2022-09-03T21:57:19;19.10;65.80
58409;DHT22;44202;52.730;6.470;2022-09-03T22:00:00;19.10;66.10
58409;DHT22;44202;52.730;6.470;2022-09-03T22:02:30;19.00;66.50
58409;DHT22;44202;52.730;6.470;2022-09-03T22:04:57;18.90;66.50
58409;DHT22;44202;52.730;6.470;2022-09-03T22:07:50;18.80;67.40
58409;DHT22;44202;52.730;6.470;2022-09-03T22:10:33;18.80;67.30
58409;DHT22;44202;52.730;6.470;2022-09-03T22:15:49;18.70;68.20
58409;DHT22;44202;52.730;6.470;2022-09-03T22:18:28;18.60;68.50
58409;DHT22;44202;52.730;6.470;2022-09-03T22:21:11;18.50;69.40
58409;DHT22;44202;52.730;6.470;2022-09-03T22:26:19;18.40;68.70
58409;DHT22;44202;52.730;6.470;2022-09-03T22:29:13;18.40;68.90
58409;DHT22;44202;52.730;6.470;2022-09-03T22:32:05;18.40;68.20